sensor_id;sensor_type;location;lat;lon;timestamp;P1;durP1;ratioP1;P2;durP2;ratioP2
5807;SDS011;2930;42.678;23.312;2022-12-11T00:00:00;12.50;;;8.07;;
5807;SDS011;2930;42.678;23.312;2022-12-11T00:02:27;17.63;;;8.60;;
5807;SDS011;2930;42.678;23.312;2022-12-11T00:04:53;17.83;;;9.43;;
5807;SDS011;2930;42.678;23.312;2022-12-11T00:07:19;13.50;;;8.57;;
5807;SDS011;2930;42.678;23.312;2022-12-11T00:09:44;12.73;;;8.35;;
5807;SDS011;2930;42.678;23.312;2022-12-11T00:12:10;12.30;;;7.45;;
5807;SDS011;2930;42.678;23.312;2022-12-11T00:14:35;14.18;;;7.95;;
5807;SDS011;2930;42.678;23.312;2022-12-11T00:17:01;17.42;;;8.18;;
5807;SDS011;2930;42.678;23.312;2022-12-11T00:19:27;19.73;;;8.30;;
5807;SDS011;2930;42.678;23.312;2022-12-11T00:21:52;10.38;;;7.32;;
5807;SDS011;2930;42.678;23.312;2022-12-11T00:24:18;11.63;;;7.85;;
5807;SDS011;2930;42.678;23.312;2022-12-11T00:26:44;15.43;;;7.93;;
5807;SDS011;2930;42.678;23.312;2022-12-11T00:29:10;10.18;;;7.78;;
5807;SDS011;2930;42.678;23.312;2022-12-11T00:31:39;9.90;;;7.30;;
5807;SDS011;2930;42.678;23.312;2022-12-11T00:34:05;10.55;;;7.75;;
5807;SDS011;2930;42.678;23.312;2022-12-11T00:36:31;10.90;;;6.20;;
5807;SDS011;2930;42.678;23.312;2022-12-11T00:38:57;11.23;;;6.32;;
5807;SDS011;2930;42.678;23.312;2022-12-11T00:41:23;10.05;;;6.90;;
5807;SDS011;2930;42.678;23.312;2022-12-11T00:43:48;10.73;;;6.63;;
5807;SDS011;2930;42.678;23.312;2022-12-11T00:46:15;7.72;;;6.43;;
5807;SDS011;2930;42.678;23.312;2022-12-11T00:48:40;9.77;;;6.03;;
5807;SDS011;2930;42.678;23.312;2022-12-11T00:51:07;12.63;;;6.80;;
5807;SDS011;2930;42.678;23.312;2022-12-11T00:53:34;8.07;;;5.93;;
5807;SDS011;2930;42.678;23.312;2022-12-11T00:56:00;11.00;;;5.45;;
5807;SDS011;2930;42.678;23.312;2022-12-11T00:58:25;9.18;;;5.55;;
5807;SDS011;2930;42.678;23.312;2022-12-11T01:00:51;7.85;;;4.93;;
5807;SDS011;2930;42.678;23.312;2022-12-11T01:03:17;12.32;;;6.53;;
5807;SDS011;2930;42.678;23.312;2022-12-11T01:05:50;8.68;;;5.47;;
5807;SDS011;2930;42.678;23.312;2022-12-11T01:08:17;5.70;;;4.72;;
5807;SDS011;2930;42.678;23.312;2022-12-11T01:10:43;6.22;;;4.40;;
5807;SDS011;2930;42.678;23.312;2022-12-11T01:13:09;3.90;;;3.55;;
5807;SDS011;2930;42.678;23.312;2022-12-11T01:15:40;4.40;;;3.15;;
5807;SDS011;2930;42.678;23.312;2022-12-11T01:18:07;4.70;;;3.50;;
5807;SDS011;2930;42.678;23.312;2022-12-11T01:20:34;4.45;;;4.05;;
5807;SDS011;2930;42.678;23.312;2022-12-11T01:23:01;5.18;;;4.13;;
5807;SDS011;2930;42.678;23.312;2022-12-11T01:25:27;5.15;;;4.47;;
5807;SDS011;2930;42.678;23.312;2022-12-11T01:27:53;8.32;;;4.07;;
5807;SDS011;2930;42.678;23.312;2022-12-11T01:30:20;10.52;;;4.65;;
5807;SDS011;2930;42.678;23.312;2022-12-11T01:32:47;4.75;;;4.32;;
5807;SDS011;2930;42.678;23.312;2022-12-11T01:35:13;3.88;;;2.33;;
5807;SDS011;2930;42.678;23.312;2022-12-11T01:37:40;4.80;;;2.80;;
5807;SDS011;2930;42.678;23.312;2022-12-11T01:40:06;3.03;;;2.75;;
5807;SDS011;2930;42.678;23.312;2022-12-11T01:42:32;3.17;;;2.95;;
5807;SDS011;2930;42.678;23.312;2022-12-11T01:48:05;3.33;;;2.67;;
5807;SDS011;2930;42.678;23.312;2022-12-11T01:50:37;2.33;;;2.22;;
5807;SDS011;2930;42.678;23.312;2022-12-11T01:53:07;3.20;;;2.70;;
5807;SDS011;2930;42.678;23.312;2022-12-11T01:55:36;2.67;;;2.45;;
5807;SDS011;2930;42.678;23.312;2022-12-11T01:58:03;3.90;;;2.80;;
5807;SDS011;2930;42.678;23.312;2022-12-11T02:00:30;6.03;;;2.63;;
5807;SDS011;2930;42.678;23.312;2022-12-11T02:02:56;7.28;;;2.03;;
5807;SDS011;2930;42.678;23.312;2022-12-11T02:05:21;3.15;;;2.40;;
5807;SDS011;2930;42.678;23.312;2022-12-11T02:07:51;1.67;;;1.58;;
5807;SDS011;2930;42.678;23.312;2022-12-11T02:10:23;1.65;;;1.60;;
5807;SDS011;2930;42.678;23.312;2022-12-11T02:13:18;2.08;;;1.98;;
5807;SDS011;2930;42.678;23.312;2022-12-11T02:18:38;0.70;;;0.70;;
5807;SDS011;2930;42.678;23.312;2022-12-11T02:21:17;0.68;;;0.68;;
5807;SDS011;2930;42.678;23.312;2022-12-11T02:27:13;1.50;;;0.60;;
5807;SDS011;2930;42.678;23.312;2022-12-11T02:30:07;0.75;;;0.60;;
5807;SDS011;2930;42.678;23.312;2022-12-11T02:32:41;0.80;;;0.43;;
5807;SDS011;2930;42.678;23.312;2022-12-11T02:37:36;0.40;;;0.40;;
5807;SDS011;2930;42.678;23.312;2022-12-11T02:40:04;0.40;;;0.40;;
5807;SDS011;2930;42.678;23.312;2022-12-11T02:42:33;0.68;;;0.40;;
5807;SDS011;2930;42.678;23.312;2022-12-11T02:45:01;0.80;;;0.63;;
5807;SDS011;2930;42.678;23.312;2022-12-11T02:47:28;0.35;;;0.35;;
5807;SDS011;2930;42.678;23.312;2022-12-11T02:49:57;0.40;;;0.40;;
5807;SDS011;2930;42.678;23.312;2022-12-11T02:52:26;0.40;;;0.40;;
5807;SDS011;2930;42.678;23.312;2022-12-11T02:54:55;0.47;;;0.40;;
5807;SDS011;2930;42.678;23.312;2022-12-11T02:57:26;0.32;;;0.32;;
5807;SDS011;2930;42.678;23.312;2022-12-11T03:00:22;1.13;;;0.80;;
5807;SDS011;2930;42.678;23.312;2022-12-11T03:02:48;0.40;;;0.40;;
5807;SDS011;2930;42.678;23.312;2022-12-11T03:05:14;0.35;;;0.35;;
5807;SDS011;2930;42.678;23.312;2022-12-11T03:07:40;0.45;;;0.45;;
5807;SDS011;2930;42.678;23.312;2022-12-11T03:10:10;0.47;;;0.40;;
5807;SDS011;2930;42.678;23.312;2022-12-11T03:12:39;0.20;;;0.20;;
5807;SDS011;2930;42.678;23.312;2022-12-11T03:15:10;0.38;;;0.38;;
5807;SDS011;2930;42.678;23.312;2022-12-11T03:20:42;0.30;;;0.30;;
5807;SDS011;2930;42.678;23.312;2022-12-11T03:25:52;0.35;;;0.35;;
5807;SDS011;2930;42.678;23.312;2022-12-11T03:28:23;0.30;;;0.30;;
5807;SDS011;2930;42.678;23.312;2022-12-11T03:31:00;0.20;;;0.20;;
5807;SDS011;2930;42.678;23.312;2022-12-11T03:33:33;0.40;;;0.40;;
5807;SDS011;2930;42.678;23.312;2022-12-11T03:36:04;0.20;;;0.20;;
5807;SDS011;2930;42.678;23.312;2022-12-11T03:38:43;0.20;;;0.20;;
5807;SDS011;2930;42.678;23.312;2022-12-11T03:41:16;0.20;;;0.20;;
5807;SDS011;2930;42.678;23.312;2022-12-11T03:43:45;0.30;;;0.20;;
5807;SDS011;2930;42.678;23.312;2022-12-11T03:46:16;0.20;;;0.20;;
5807;SDS011;2930;42.678;23.312;2022-12-11T03:48:45;0.30;;;0.20;;
5807;SDS011;2930;42.678;23.312;2022-12-11T03:51:12;0.13;;;0.13;;
5807;SDS011;2930;42.678;23.312;2022-12-11T03:53:40;0.10;;;0.10;;
5807;SDS011;2930;42.678;23.312;2022-12-11T03:56:07;0.35;;;0.10;;
5807;SDS011;2930;42.678;23.312;2022-12-11T03:58:36;0.25;;;0.25;;
5807;SDS011;2930;42.678;23.312;2022-12-11T04:01:02;0.15;;;0.15;;
5807;SDS011;2930;42.678;23.312;2022-12-11T04:03:28;0.10;;;0.10;;
5807;SDS011;2930;42.678;23.312;2022-12-11T04:05:54;0.20;;;0.20;;
5807;SDS011;2930;42.678;23.312;2022-12-11T04:08:20;0.20;;;0.20;;
5807;SDS011;2930;42.678;23.312;2022-12-11T04:10:47;0.35;;;0.35;;
5807;SDS011;2930;42.678;23.312;2022-12-11T04:13:33;0.20;;;0.20;;
5807;SDS011;2930;42.678;23.312;2022-12-11T04:15:59;1.55;;;0.32;;
5807;SDS011;2930;42.678;23.312;2022-12-11T04:18:25;0.20;;;0.20;;
5807;SDS011;2930;42.678;23.312;2022-12-11T04:21:09;0.32;;;0.10;;
5807;SDS011;2930;42.678;23.312;2022-12-11T04:23:53;0.20;;;0.20;;
5807;SDS011;2930;42.678;23.312;2022-12-11T04:26:37;1.05;;;0.30;;
5807;SDS011;2930;42.678;23.312;2022-12-11T04:29:03;0.10;;;0.10;;
5807;SDS011;2930;42.678;23.312;2022-12-11T04:31:29;0.20;;;0.20;;
5807;SDS011;2930;42.678;23.312;2022-12-11T04:33:54;0.30;;;0.10;;
5807;SDS011;2930;42.678;23.312;2022-12-11T04:36:20;0.10;;;0.10;;
5807;SDS011;2930;42.678;23.312;2022-12-11T04:38:46;0.32;;;0.20;;
5807;SDS011;2930;42.678;23.312;2022-12-11T04:41:12;0.30;;;0.30;;
5807;SDS011;2930;42.678;23.312;2022-12-11T04:43:39;0.10;;;0.10;;
5807;SDS011;2930;42.678;23.312;2022-12-11T04:46:09;0.25;;;0.25;;
5807;SDS011;2930;42.678;23.312;2022-12-11T04:48:37;0.38;;;0.38;;
5807;SDS011;2930;42.678;23.312;2022-12-11T04:51:03;0.10;;;0.10;;
5807;SDS011;2930;42.678;23.312;2022-12-11T04:53:29;0.10;;;0.10;;
5807;SDS011;2930;42.678;23.312;2022-12-11T04:55:56;0.10;;;0.10;;
5807;SDS011;2930;42.678;23.312;2022-12-11T04:58:22;0.68;;;0.28;;
5807;SDS011;2930;42.678;23.312;2022-12-11T05:00:48;1.75;;;0.13;;
5807;SDS011;2930;42.678;23.312;2022-12-11T05:03:14;0.00;;;0.00;;
5807;SDS011;2930;42.678;23.312;2022-12-11T05:05:42;0.10;;;0.10;;
5807;SDS011;2930;42.678;23.312;2022-12-11T05:08:18;0.10;;;0.10;;
5807;SDS011;2930;42.678;23.312;2022-12-11T05:10:53;0.10;;;0.10;;
5807;SDS011;2930;42.678;23.312;2022-12-11T05:13:23;0.15;;;0.15;;
5807;SDS011;2930;42.678;23.312;2022-12-11T05:15:49;0.20;;;0.20;;
5807;SDS011;2930;42.678;23.312;2022-12-11T05:18:14;0.20;;;0.20;;
5807;SDS011;2930;42.678;23.312;2022-12-11T05:20:40;0.10;;;0.10;;
5807;SDS011;2930;42.678;23.312;2022-12-11T05:23:06;0.82;;;0.20;;
5807;SDS011;2930;42.678;23.312;2022-12-11T05:25:32;0.38;;;0.10;;
5807;SDS011;2930;42.678;23.312;2022-12-11T05:27:57;1.10;;;0.10;;
5807;SDS011;2930;42.678;23.312;2022-12-11T05:30:23;0.10;;;0.10;;
5807;SDS011;2930;42.678;23.312;2022-12-11T05:32:50;0.10;;;0.10;;
5807;SDS011;2930;42.678;23.312;2022-12-11T05:35:15;0.75;;;0.10;;
5807;SDS011;2930;42.678;23.312;2022-12-11T05:37:41;0.73;;;0.10;;
5807;SDS011;2930;42.678;23.312;2022-12-11T05:40:07;0.20;;;0.20;;
5807;SDS011;2930;42.678;23.312;2022-12-11T05:42:33;1.25;;;0.30;;
5807;SDS011;2930;42.678;23.312;2022-12-11T05:44:59;0.45;;;0.40;;
5807;SDS011;2930;42.678;23.312;2022-12-11T05:47:25;0.10;;;0.10;;
5807;SDS011;2930;42.678;23.312;2022-12-11T05:49:51;0.20;;;0.20;;
5807;SDS011;2930;42.678;23.312;2022-12-11T05:52:16;0.20;;;0.20;;
5807;SDS011;2930;42.678;23.312;2022-12-11T05:54:42;1.17;;;0.20;;
5807;SDS011;2930;42.678;23.312;2022-12-11T05:57:08;0.17;;;0.17;;
5807;SDS011;2930;42.678;23.312;2022-12-11T05:59:33;0.10;;;0.10;;
5807;SDS011;2930;42.678;23.312;2022-12-11T06:01:59;0.10;;;0.10;;
5807;SDS011;2930;42.678;23.312;2022-12-11T06:04:25;0.20;;;0.20;;
5807;SDS011;2930;42.678;23.312;2022-12-11T06:06:53;0.63;;;0.20;;
5807;SDS011;2930;42.678;23.312;2022-12-11T06:09:19;0.20;;;0.20;;
5807;SDS011;2930;42.678;23.312;2022-12-11T06:11:44;0.10;;;0.10;;
5807;SDS011;2930;42.678;23.312;2022-12-11T06:14:10;0.15;;;0.10;;
5807;SDS011;2930;42.678;23.312;2022-12-11T06:16:36;0.10;;;0.10;;
5807;SDS011;2930;42.678;23.312;2022-12-11T06:19:02;0.10;;;0.10;;
5807;SDS011;2930;42.678;23.312;2022-12-11T06:21:29;0.30;;;0.20;;
5807;SDS011;2930;42.678;23.312;2022-12-11T06:23:57;0.28;;;0.28;;
5807;SDS011;2930;42.678;23.312;2022-12-11T06:26:25;0.20;;;0.20;;
5807;SDS011;2930;42.678;23.312;2022-12-11T06:28:51;1.02;;;0.22;;
5807;SDS011;2930;42.678;23.312;2022-12-11T06:31:17;0.10;;;0.10;;
5807;SDS011;2930;42.678;23.312;2022-12-11T06:33:43;0.22;;;0.20;;
5807;SDS011;2930;42.678;23.312;2022-12-11T06:36:11;0.22;;;0.20;;
5807;SDS011;2930;42.678;23.312;2022-12-11T06:38:41;0.95;;;0.20;;
5807;SDS011;2930;42.678;23.312;2022-12-11T06:41:07;0.40;;;0.20;;
5807;SDS011;2930;42.678;23.312;2022-12-11T06:43:33;0.10;;;0.10;;
5807;SDS011;2930;42.678;23.312;2022-12-11T06:46:04;0.35;;;0.30;;
5807;SDS011;2930;42.678;23.312;2022-12-11T06:48:34;2.15;;;0.20;;
5807;SDS011;2930;42.678;23.312;2022-12-11T06:51:07;0.08;;;0.08;;
5807;SDS011;2930;42.678;23.312;2022-12-11T06:53:33;0.13;;;0.13;;
5807;SDS011;2930;42.678;23.312;2022-12-11T06:56:04;0.10;;;0.10;;
5807;SDS011;2930;42.678;23.312;2022-12-11T06:58:32;0.05;;;0.05;;
5807;SDS011;2930;42.678;23.312;2022-12-11T07:00:59;0.30;;;0.28;;
5807;SDS011;2930;42.678;23.312;2022-12-11T07:03:26;0.10;;;0.10;;
5807;SDS011;2930;42.678;23.312;2022-12-11T07:05:52;0.03;;;0.03;;
5807;SDS011;2930;42.678;23.312;2022-12-11T07:08:17;0.10;;;0.10;;
5807;SDS011;2930;42.678;23.312;2022-12-11T07:10:43;0.10;;;0.10;;
5807;SDS011;2930;42.678;23.312;2022-12-11T07:13:09;0.15;;;0.10;;
5807;SDS011;2930;42.678;23.312;2022-12-11T07:15:35;0.10;;;0.10;;
5807;SDS011;2930;42.678;23.312;2022-12-11T07:18:01;0.10;;;0.10;;
5807;SDS011;2930;42.678;23.312;2022-12-11T07:20:26;0.40;;;0.10;;
5807;SDS011;2930;42.678;23.312;2022-12-11T07:22:52;2.40;;;0.17;;
5807;SDS011;2930;42.678;23.312;2022-12-11T07:25:18;0.30;;;0.30;;
5807;SDS011;2930;42.678;23.312;2022-12-11T07:27:44;0.10;;;0.10;;
5807;SDS011;2930;42.678;23.312;2022-12-11T07:30:10;0.13;;;0.13;;
5807;SDS011;2930;42.678;23.312;2022-12-11T07:32:37;0.20;;;0.20;;
5807;SDS011;2930;42.678;23.312;2022-12-11T07:35:02;0.35;;;0.35;;
5807;SDS011;2930;42.678;23.312;2022-12-11T07:37:29;0.15;;;0.15;;
5807;SDS011;2930;42.678;23.312;2022-12-11T07:39:54;0.17;;;0.17;;
5807;SDS011;2930;42.678;23.312;2022-12-11T07:42:20;0.10;;;0.10;;
5807;SDS011;2930;42.678;23.312;2022-12-11T07:44:46;1.92;;;0.20;;
5807;SDS011;2930;42.678;23.312;2022-12-11T07:47:11;0.20;;;0.20;;
5807;SDS011;2930;42.678;23.312;2022-12-11T07:49:37;0.20;;;0.20;;
5807;SDS011;2930;42.678;23.312;2022-12-11T07:52:03;0.10;;;0.10;;
5807;SDS011;2930;42.678;23.312;2022-12-11T07:54:29;0.10;;;0.10;;
5807;SDS011;2930;42.678;23.312;2022-12-11T07:56:54;0.15;;;0.15;;
5807;SDS011;2930;42.678;23.312;2022-12-11T07:59:20;1.58;;;0.40;;
5807;SDS011;2930;42.678;23.312;2022-12-11T08:01:46;1.95;;;0.15;;
5807;SDS011;2930;42.678;23.312;2022-12-11T08:04:12;0.20;;;0.20;;
5807;SDS011;2930;42.678;23.312;2022-12-11T08:06:39;0.20;;;0.20;;
5807;SDS011;2930;42.678;23.312;2022-12-11T08:09:07;0.20;;;0.20;;
5807;SDS011;2930;42.678;23.312;2022-12-11T08:11:35;0.20;;;0.20;;
5807;SDS011;2930;42.678;23.312;2022-12-11T08:14:02;1.55;;;0.20;;
5807;SDS011;2930;42.678;23.312;2022-12-11T08:16:29;0.68;;;0.30;;
5807;SDS011;2930;42.678;23.312;2022-12-11T08:18:56;0.20;;;0.20;;
5807;SDS011;2930;42.678;23.312;2022-12-11T08:21:23;0.22;;;0.22;;
5807;SDS011;2930;42.678;23.312;2022-12-11T08:23:51;0.20;;;0.20;;
5807;SDS011;2930;42.678;23.312;2022-12-11T08:26:18;0.30;;;0.30;;
5807;SDS011;2930;42.678;23.312;2022-12-11T08:28:52;0.30;;;0.30;;
5807;SDS011;2930;42.678;23.312;2022-12-11T08:31:19;0.20;;;0.20;;
5807;SDS011;2930;42.678;23.312;2022-12-11T08:33:45;0.20;;;0.20;;
5807;SDS011;2930;42.678;23.312;2022-12-11T08:36:12;0.20;;;0.20;;
5807;SDS011;2930;42.678;23.312;2022-12-11T08:38:40;0.43;;;0.30;;
5807;SDS011;2930;42.678;23.312;2022-12-11T08:41:14;0.47;;;0.20;;
5807;SDS011;2930;42.678;23.312;2022-12-11T08:43:47;0.25;;;0.25;;
5807;SDS011;2930;42.678;23.312;2022-12-11T08:46:13;0.30;;;0.30;;
5807;SDS011;2930;42.678;23.312;2022-12-11T08:48:40;1.20;;;0.20;;
5807;SDS011;2930;42.678;23.312;2022-12-11T08:51:09;0.35;;;0.28;;
5807;SDS011;2930;42.678;23.312;2022-12-11T08:53:37;1.58;;;0.28;;
5807;SDS011;2930;42.678;23.312;2022-12-11T08:56:04;0.47;;;0.30;;
5807;SDS011;2930;42.678;23.312;2022-12-11T08:58:31;0.20;;;0.20;;
5807;SDS011;2930;42.678;23.312;2022-12-11T09:00:57;0.73;;;0.50;;
5807;SDS011;2930;42.678;23.312;2022-12-11T09:03:23;2.65;;;0.45;;
5807;SDS011;2930;42.678;23.312;2022-12-11T09:05:49;0.40;;;0.40;;
5807;SDS011;2930;42.678;23.312;2022-12-11T09:08:15;0.35;;;0.35;;
5807;SDS011;2930;42.678;23.312;2022-12-11T09:10:41;0.30;;;0.30;;
5807;SDS011;2930;42.678;23.312;2022-12-11T09:13:07;0.88;;;0.80;;
5807;SDS011;2930;42.678;23.312;2022-12-11T09:15:33;0.40;;;0.40;;
5807;SDS011;2930;42.678;23.312;2022-12-11T09:18:00;0.50;;;0.50;;
5807;SDS011;2930;42.678;23.312;2022-12-11T09:20:26;2.00;;;0.30;;
5807;SDS011;2930;42.678;23.312;2022-12-11T09:22:52;0.40;;;0.32;;
5807;SDS011;2930;42.678;23.312;2022-12-11T09:25:18;0.30;;;0.30;;
5807;SDS011;2930;42.678;23.312;2022-12-11T09:27:44;0.73;;;0.40;;
5807;SDS011;2930;42.678;23.312;2022-12-11T09:30:10;0.30;;;0.30;;
5807;SDS011;2930;42.678;23.312;2022-12-11T09:32:37;0.95;;;0.40;;
5807;SDS011;2930;42.678;23.312;2022-12-11T09:35:03;1.30;;;0.30;;
5807;SDS011;2930;42.678;23.312;2022-12-11T09:37:31;0.30;;;0.30;;
5807;SDS011;2930;42.678;23.312;2022-12-11T09:39:57;0.20;;;0.20;;
5807;SDS011;2930;42.678;23.312;2022-12-11T09:42:29;1.45;;;0.80;;
5807;SDS011;2930;42.678;23.312;2022-12-11T09:45:11;0.98;;;0.47;;
5807;SDS011;2930;42.678;23.312;2022-12-11T09:47:40;0.50;;;0.50;;
5807;SDS011;2930;42.678;23.312;2022-12-11T09:55:29;0.40;;;0.40;;
5807;SDS011;2930;42.678;23.312;2022-12-11T10:00:45;0.30;;;0.30;;
5807;SDS011;2930;42.678;23.312;2022-12-11T10:03:32;0.30;;;0.30;;
5807;SDS011;2930;42.678;23.312;2022-12-11T10:06:20;0.30;;;0.30;;
5807;SDS011;2930;42.678;23.312;2022-12-11T10:11:49;0.20;;;0.20;;
5807;SDS011;2930;42.678;23.312;2022-12-11T10:17:16;0.22;;;0.22;;
5807;SDS011;2930;42.678;23.312;2022-12-11T10:19:44;0.20;;;0.20;;
5807;SDS011;2930;42.678;23.312;2022-12-11T10:22:21;0.30;;;0.30;;
5807;SDS011;2930;42.678;23.312;2022-12-11T10:24:55;0.47;;;0.35;;
5807;SDS011;2930;42.678;23.312;2022-12-11T10:27:26;0.20;;;0.20;;
5807;SDS011;2930;42.678;23.312;2022-12-11T10:30:13;0.28;;;0.20;;
5807;SDS011;2930;42.678;23.312;2022-12-11T10:32:45;3.95;;;0.50;;
5807;SDS011;2930;42.678;23.312;2022-12-11T10:38:25;0.28;;;0.28;;
5807;SDS011;2930;42.678;23.312;2022-12-11T10:40:57;0.20;;;0.20;;
5807;SDS011;2930;42.678;23.312;2022-12-11T10:43:45;0.30;;;0.30;;
5807;SDS011;2930;42.678;23.312;2022-12-11T10:46:19;1.52;;;0.20;;
5807;SDS011;2930;42.678;23.312;2022-12-11T10:48:48;0.30;;;0.30;;
5807;SDS011;2930;42.678;23.312;2022-12-11T10:51:14;0.13;;;0.13;;
5807;SDS011;2930;42.678;23.312;2022-12-11T10:53:40;0.10;;;0.10;;
5807;SDS011;2930;42.678;23.312;2022-12-11T10:56:08;0.30;;;0.30;;
5807;SDS011;2930;42.678;23.312;2022-12-11T10:58:36;0.20;;;0.20;;
5807;SDS011;2930;42.678;23.312;2022-12-11T11:01:14;2.28;;;0.30;;
5807;SDS011;2930;42.678;23.312;2022-12-11T11:06:30;0.10;;;0.10;;
5807;SDS011;2930;42.678;23.312;2022-12-11T11:08:57;0.20;;;0.20;;
5807;SDS011;2930;42.678;23.312;2022-12-11T11:11:33;0.13;;;0.13;;
5807;SDS011;2930;42.678;23.312;2022-12-11T11:14:18;0.30;;;0.30;;
5807;SDS011;2930;42.678;23.312;2022-12-11T11:16:46;0.55;;;0.22;;
5807;SDS011;2930;42.678;23.312;2022-12-11T11:19:35;0.30;;;0.30;;
5807;SDS011;2930;42.678;23.312;2022-12-11T11:22:02;1.55;;;0.22;;
5807;SDS011;2930;42.678;23.312;2022-12-11T11:30:06;0.73;;;0.40;;
5807;SDS011;2930;42.678;23.312;2022-12-11T11:32:43;1.20;;;0.30;;
5807;SDS011;2930;42.678;23.312;2022-12-11T11:37:42;0.30;;;0.30;;
5807;SDS011;2930;42.678;23.312;2022-12-11T11:42:42;0.40;;;0.40;;
5807;SDS011;2930;42.678;23.312;2022-12-11T11:45:19;0.30;;;0.30;;
5807;SDS011;2930;42.678;23.312;2022-12-11T11:48:01;0.30;;;0.30;;
5807;SDS011;2930;42.678;23.312;2022-12-11T11:50:45;0.57;;;0.32;;
5807;SDS011;2930;42.678;23.312;2022-12-11T11:53:30;0.40;;;0.35;;
5807;SDS011;2930;42.678;23.312;2022-12-11T11:56:11;0.30;;;0.30;;
5807;SDS011;2930;42.678;23.312;2022-12-11T11:58:44;0.20;;;0.20;;
5807;SDS011;2930;42.678;23.312;2022-12-11T12:01:29;0.20;;;0.20;;
5807;SDS011;2930;42.678;23.312;2022-12-11T12:03:55;0.40;;;0.40;;
5807;SDS011;2930;42.678;23.312;2022-12-11T12:25:56;3.13;;;0.40;;
5807;SDS011;2930;42.678;23.312;2022-12-11T12:44:54;2.35;;;0.50;;
5807;SDS011;2930;42.678;23.312;2022-12-11T12:47:25;0.50;;;0.50;;
5807;SDS011;2930;42.678;23.312;2022-12-11T12:49:53;0.50;;;0.50;;
5807;SDS011;2930;42.678;23.312;2022-12-11T12:54:57;0.45;;;0.45;;
5807;SDS011;2930;42.678;23.312;2022-12-11T13:00:11;1.40;;;0.50;;
5807;SDS011;2930;42.678;23.312;2022-12-11T13:02:45;0.43;;;0.43;;
5807;SDS011;2930;42.678;23.312;2022-12-11T13:05:27;0.30;;;0.30;;
5807;SDS011;2930;42.678;23.312;2022-12-11T13:07:58;0.30;;;0.30;;
5807;SDS011;2930;42.678;23.312;2022-12-11T13:10:30;0.30;;;0.30;;
5807;SDS011;2930;42.678;23.312;2022-12-11T13:12:58;0.77;;;0.50;;
5807;SDS011;2930;42.678;23.312;2022-12-11T13:15:27;0.20;;;0.20;;
5807;SDS011;2930;42.678;23.312;2022-12-11T13:17:53;0.30;;;0.30;;
5807;SDS011;2930;42.678;23.312;2022-12-11T13:20:21;0.40;;;0.40;;
5807;SDS011;2930;42.678;23.312;2022-12-11T13:22:55;0.30;;;0.30;;
5807;SDS011;2930;42.678;23.312;2022-12-11T13:25:50;0.20;;;0.20;;
5807;SDS011;2930;42.678;23.312;2022-12-11T13:28:26;0.20;;;0.20;;
5807;SDS011;2930;42.678;23.312;2022-12-11T13:33:27;0.20;;;0.20;;
5807;SDS011;2930;42.678;23.312;2022-12-11T13:36:05;0.20;;;0.20;;
5807;SDS011;2930;42.678;23.312;2022-12-11T13:38:38;0.60;;;0.22;;
5807;SDS011;2930;42.678;23.312;2022-12-11T13:41:12;0.20;;;0.20;;
5807;SDS011;2930;42.678;23.312;2022-12-11T13:43:38;0.40;;;0.40;;
5807;SDS011;2930;42.678;23.312;2022-12-11T13:46:09;0.52;;;0.52;;
5807;SDS011;2930;42.678;23.312;2022-12-11T13:48:42;0.20;;;0.20;;
5807;SDS011;2930;42.678;23.312;2022-12-11T13:51:37;0.33;;;0.33;;
5807;SDS011;2930;42.678;23.312;2022-12-11T13:54:16;0.20;;;0.20;;
5807;SDS011;2930;42.678;23.312;2022-12-11T13:56:59;0.40;;;0.40;;
5807;SDS011;2930;42.678;23.312;2022-12-11T13:59:29;0.20;;;0.20;;
5807;SDS011;2930;42.678;23.312;2022-12-11T14:02:00;0.40;;;0.40;;
5807;SDS011;2930;42.678;23.312;2022-12-11T14:04:49;1.33;;;0.30;;
5807;SDS011;2930;42.678;23.312;2022-12-11T14:07:19;0.30;;;0.30;;
5807;SDS011;2930;42.678;23.312;2022-12-11T14:09:58;0.30;;;0.30;;
5807;SDS011;2930;42.678;23.312;2022-12-11T14:12:27;0.20;;;0.20;;
5807;SDS011;2930;42.678;23.312;2022-12-11T14:14:54;0.87;;;0.40;;
5807;SDS011;2930;42.678;23.312;2022-12-11T14:17:23;0.20;;;0.20;;
5807;SDS011;2930;42.678;23.312;2022-12-11T14:19:52;0.20;;;0.20;;
5807;SDS011;2930;42.678;23.312;2022-12-11T14:22:21;0.20;;;0.20;;
5807;SDS011;2930;42.678;23.312;2022-12-11T14:24:52;0.20;;;0.20;;
5807;SDS011;2930;42.678;23.312;2022-12-11T14:27:19;0.20;;;0.20;;
5807;SDS011;2930;42.678;23.312;2022-12-11T14:29:45;0.27;;;0.27;;
5807;SDS011;2930;42.678;23.312;2022-12-11T14:32:16;0.10;;;0.10;;
5807;SDS011;2930;42.678;23.312;2022-12-11T14:34:47;0.10;;;0.10;;
5807;SDS011;2930;42.678;23.312;2022-12-11T14:37:15;0.10;;;0.10;;
5807;SDS011;2930;42.678;23.312;2022-12-11T14:39:45;0.30;;;0.30;;
5807;SDS011;2930;42.678;23.312;2022-12-11T14:42:19;4.50;;;0.30;;
5807;SDS011;2930;42.678;23.312;2022-12-11T14:44:49;0.57;;;0.40;;
5807;SDS011;2930;42.678;23.312;2022-12-11T14:47:24;0.30;;;0.30;;
5807;SDS011;2930;42.678;23.312;2022-12-11T14:49:57;0.20;;;0.20;;
5807;SDS011;2930;42.678;23.312;2022-12-11T14:52:30;0.50;;;0.20;;
5807;SDS011;2930;42.678;23.312;2022-12-11T14:55:07;0.10;;;0.10;;
5807;SDS011;2930;42.678;23.312;2022-12-11T14:57:34;0.13;;;0.13;;
5807;SDS011;2930;42.678;23.312;2022-12-11T15:00:02;0.17;;;0.17;;
5807;SDS011;2930;42.678;23.312;2022-12-11T15:02:29;0.10;;;0.10;;
5807;SDS011;2930;42.678;23.312;2022-12-11T15:04:58;0.20;;;0.20;;
5807;SDS011;2930;42.678;23.312;2022-12-11T15:07:41;0.20;;;0.20;;
5807;SDS011;2930;42.678;23.312;2022-12-11T15:10:20;0.10;;;0.10;;
5807;SDS011;2930;42.678;23.312;2022-12-11T15:12:55;0.13;;;0.13;;
5807;SDS011;2930;42.678;23.312;2022-12-11T15:15:21;0.10;;;0.10;;
5807;SDS011;2930;42.678;23.312;2022-12-11T15:17:48;0.10;;;0.10;;
5807;SDS011;2930;42.678;23.312;2022-12-11T15:20:48;0.30;;;0.20;;
5807;SDS011;2930;42.678;23.312;2022-12-11T15:23:07;0.00;;;0.00;;
5807;SDS011;2930;42.678;23.312;2022-12-11T15:25:33;0.20;;;0.20;;
5807;SDS011;2930;42.678;23.312;2022-12-11T15:27:59;0.23;;;0.10;;
5807;SDS011;2930;42.678;23.312;2022-12-11T15:30:30;0.23;;;0.23;;
5807;SDS011;2930;42.678;23.312;2022-12-11T15:33:02;1.23;;;0.40;;
5807;SDS011;2930;42.678;23.312;2022-12-11T15:35:53;0.10;;;0.10;;
5807;SDS011;2930;42.678;23.312;2022-12-11T15:38:35;0.20;;;0.20;;
5807;SDS011;2930;42.678;23.312;2022-12-11T15:41:13;0.10;;;0.10;;
5807;SDS011;2930;42.678;23.312;2022-12-11T15:43:41;0.23;;;0.23;;
5807;SDS011;2930;42.678;23.312;2022-12-11T15:46:07;0.10;;;0.10;;
5807;SDS011;2930;42.678;23.312;2022-12-11T15:48:33;0.30;;;0.30;;
5807;SDS011;2930;42.678;23.312;2022-12-11T15:50:58;1.47;;;0.43;;
5807;SDS011;2930;42.678;23.312;2022-12-11T15:53:24;0.40;;;0.40;;
5807;SDS011;2930;42.678;23.312;2022-12-11T15:55:50;0.30;;;0.30;;
5807;SDS011;2930;42.678;23.312;2022-12-11T15:58:20;0.20;;;0.20;;
5807;SDS011;2930;42.678;23.312;2022-12-11T16:00:48;0.10;;;0.10;;
5807;SDS011;2930;42.678;23.312;2022-12-11T16:03:15;0.30;;;0.30;;
5807;SDS011;2930;42.678;23.312;2022-12-11T16:05:42;0.30;;;0.20;;
5807;SDS011;2930;42.678;23.312;2022-12-11T16:08:11;0.20;;;0.20;;
5807;SDS011;2930;42.678;23.312;2022-12-11T16:10:39;0.20;;;0.20;;
5807;SDS011;2930;42.678;23.312;2022-12-11T16:13:09;0.10;;;0.10;;
5807;SDS011;2930;42.678;23.312;2022-12-11T16:15:36;1.20;;;0.20;;
5807;SDS011;2930;42.678;23.312;2022-12-11T16:18:04;0.20;;;0.20;;
5807;SDS011;2930;42.678;23.312;2022-12-11T16:20:33;0.40;;;0.10;;
5807;SDS011;2930;42.678;23.312;2022-12-11T16:22:59;0.10;;;0.10;;
5807;SDS011;2930;42.678;23.312;2022-12-11T16:25:25;0.20;;;0.20;;
5807;SDS011;2930;42.678;23.312;2022-12-11T16:27:55;0.13;;;0.13;;
5807;SDS011;2930;42.678;23.312;2022-12-11T16:30:22;0.10;;;0.10;;
5807;SDS011;2930;42.678;23.312;2022-12-11T16:32:48;0.10;;;0.10;;
5807;SDS011;2930;42.678;23.312;2022-12-11T16:35:14;0.27;;;0.20;;
5807;SDS011;2930;42.678;23.312;2022-12-11T16:37:39;0.10;;;0.10;;
5807;SDS011;2930;42.678;23.312;2022-12-11T16:40:05;0.67;;;0.20;;
5807;SDS011;2930;42.678;23.312;2022-12-11T16:42:32;0.20;;;0.20;;
5807;SDS011;2930;42.678;23.312;2022-12-11T16:45:05;0.20;;;0.20;;